createdAt,value
2022-07-29T00:02:12.480Z,1.73
2022-07-29T00:04:40.759Z,1.87
2022-07-29T00:07:09.004Z,1.57
2022-07-29T00:09:51.047Z,1.47
2022-07-29T00:12:25.302Z,2.17
2022-07-29T00:14:55.750Z,1.57
2022-07-29T00:17:23.828Z,1.67
2022-07-29T00:19:51.961Z,1.80
2022-07-29T00:22:19.974Z,1.80
2022-07-29T00:24:49.902Z,1.70
2022-07-29T00:27:19.364Z,1.80
2022-07-29T00:29:48.983Z,1.97
2022-07-29T00:32:17.100Z,1.70
2022-07-29T00:35:02.883Z,1.70
2022-07-29T00:37:30.899Z,1.57
2022-07-29T00:39:58.954Z,1.93
2022-07-29T00:42:26.954Z,2.10
2022-07-29T00:44:56.391Z,1.60
2022-07-29T00:47:24.353Z,1.73
2022-07-29T00:49:52.376Z,1.70
2022-07-29T00:52:20.398Z,1.70
2022-07-29T00:54:48.649Z,1.90
2022-07-29T00:57:16.839Z,1.70
2022-07-29T00:59:44.940Z,1.83
2022-07-29T01:02:14.360Z,1.57
2022-07-29T01:04:42.964Z,2.03
2022-07-29T01:07:11.495Z,2.00
2022-07-29T01:13:31.882Z,1.90
2022-07-29T01:16:05.936Z,2.13
2022-07-29T01:18:40.634Z,2.10
2022-07-29T01:21:48.627Z,2.10
2022-07-29T01:24:49.700Z,2.10
2022-07-29T01:27:37.444Z,1.93
2022-07-29T01:30:09.727Z,1.70
2022-07-29T01:32:39.978Z,2.07
2022-07-29T01:35:13.339Z,2.20
2022-07-29T01:37:47.547Z,2.00
2022-07-29T01:40:22.613Z,1.90
2022-07-29T01:42:54.211Z,1.73
2022-07-29T01:45:28.661Z,2.00
2022-07-29T01:48:02.430Z,2.03
2022-07-29T01:50:36.501Z,2.40
2022-07-29T01:53:07.636Z,2.03
2022-07-29T01:55:42.006Z,1.83
2022-07-29T01:58:10.910Z,2.47
2022-07-29T02:00:41.320Z,2.03
2022-07-29T02:03:14.241Z,2.07
2022-07-29T02:05:45.642Z,1.90
2022-07-29T02:08:15.165Z,2.30
2022-07-29T02:10:45.358Z,2.20
2022-07-29T02:13:15.384Z,2.13
2022-07-29T02:15:46.826Z,2.20
2022-07-29T02:18:18.414Z,1.97
2022-07-29T02:20:49.414Z,2.20
2022-07-29T02:23:21.122Z,2.30
2022-07-29T02:25:51.126Z,1.60
2022-07-29T02:28:22.408Z,2.77
2022-07-29T02:30:53.627Z,1.83
2022-07-29T02:33:23.645Z,2.00
2022-07-29T02:35:54.249Z,2.17
2022-07-29T02:38:41.881Z,2.10
2022-07-29T02:41:13.271Z,2.60
2022-07-29T02:43:42.700Z,2.40
2022-07-29T02:46:28.237Z,2.60
2022-07-29T02:49:01.561Z,2.53
2022-07-29T02:51:43.644Z,2.77
2022-07-29T02:54:16.935Z,2.40
2022-07-29T02:56:47.855Z,2.33
2022-07-29T02:59:18.773Z,2.27
2022-07-29T03:01:48.357Z,2.10
2022-07-29T03:04:18.596Z,2.20
2022-07-29T03:06:48.303Z,2.03
2022-07-29T03:09:16.980Z,2.00
2022-07-29T03:11:49.675Z,1.73
2022-07-29T03:14:20.368Z,2.17
2022-07-29T03:16:51.065Z,2.00
2022-07-29T03:19:19.363Z,2.30
2022-07-29T03:21:47.431Z,1.93
2022-07-29T03:24:27.720Z,2.10
2022-07-29T03:26:57.388Z,2.10
2022-07-29T03:29:25.715Z,2.17
2022-07-29T03:32:04.406Z,2.13
2022-07-29T03:34:37.417Z,2.00
2022-07-29T03:37:06.859Z,2.07
2022-07-29T03:39:38.851Z,2.27
2022-07-29T03:42:08.844Z,2.10
2022-07-29T03:44:38.301Z,2.03
2022-07-29T03:47:10.208Z,1.80
2022-07-29T03:49:39.845Z,1.90
2022-07-29T03:52:08.275Z,2.07
2022-07-29T03:54:36.638Z,2.20
2022-07-29T03:57:07.734Z,2.03
2022-07-29T03:59:36.475Z,2.10
2022-07-29T04:02:06.388Z,1.97
2022-07-29T04:04:37.113Z,2.03
2022-07-29T04:07:05.812Z,2.30
2022-07-29T04:09:34.166Z,2.20
2022-07-29T04:12:04.255Z,1.83
2022-07-29T04:14:33.300Z,2.10
2022-07-29T04:17:01.948Z,2.17
2022-07-29T04:19:30.055Z,2.10
2022-07-29T04:21:59.631Z,2.13
2022-07-29T04:24:28.000Z,2.10
2022-07-29T04:26:56.399Z,2.10
2022-07-29T04:29:24.593Z,2.40
2022-07-29T04:31:52.636Z,2.40
2022-07-29T04:34:21.138Z,2.40
2022-07-29T04:36:49.283Z,2.03
2022-07-29T04:39:22.942Z,2.00
2022-07-29T04:41:52.388Z,2.10
2022-07-29T04:44:22.966Z,1.97
2022-07-29T04:46:56.718Z,1.83
2022-07-29T04:49:24.963Z,2.10
2022-07-29T04:51:53.014Z,1.80
2022-07-29T04:54:22.391Z,2.27
2022-07-29T04:56:50.370Z,2.90
2022-07-29T04:59:18.558Z,1.90
2022-07-29T05:01:46.624Z,1.80
2022-07-29T05:04:14.920Z,2.10
2022-07-29T05:06:43.134Z,1.90
2022-07-29T05:09:11.201Z,1.90
2022-07-29T05:11:40.624Z,1.70
2022-07-29T05:14:08.705Z,2.00
2022-07-29T05:16:36.866Z,1.80
2022-07-29T05:19:04.981Z,1.83
2022-07-29T05:21:33.332Z,1.80
2022-07-29T05:24:01.360Z,1.70
2022-07-29T05:26:29.501Z,1.70
2022-07-29T05:28:58.858Z,1.50
2022-07-29T05:31:26.992Z,1.47
2022-07-29T05:33:55.173Z,1.57
2022-07-29T05:36:23.266Z,1.77
2022-07-29T05:38:53.013Z,1.60
2022-07-29T05:41:21.212Z,1.60
2022-07-29T05:43:49.203Z,1.57
2022-07-29T05:46:18.650Z,1.67
2022-07-29T05:48:46.786Z,1.60
2022-07-29T05:51:14.852Z,1.50
2022-07-29T05:53:43.241Z,1.47
2022-07-29T05:56:11.317Z,1.47
2022-07-29T05:58:39.293Z,1.53
2022-07-29T06:01:07.436Z,1.50
2022-07-29T06:03:38.696Z,2.27
2022-07-29T06:06:08.204Z,1.40
2022-07-29T06:08:37.244Z,1.33
2022-07-29T06:11:06.391Z,1.20
2022-07-29T06:13:34.416Z,1.23
2022-07-29T06:16:02.678Z,1.57
2022-07-29T06:18:30.803Z,1.37
2022-07-29T06:21:00.338Z,1.30
2022-07-29T06:23:28.376Z,1.50
2022-07-29T06:25:56.368Z,1.30
2022-07-29T06:28:24.367Z,1.77
2022-07-29T06:30:52.522Z,1.30
2022-07-29T06:33:21.169Z,1.17
2022-07-29T06:35:53.204Z,1.40
2022-07-29T06:38:30.086Z,1.27
2022-07-29T06:41:06.679Z,1.27
2022-07-29T06:43:50.178Z,1.30
2022-07-29T06:46:20.806Z,1.50
2022-07-29T06:48:49.873Z,1.10
2022-07-29T06:51:22.486Z,1.10
2022-07-29T06:53:58.310Z,1.10
2022-07-29T06:56:30.439Z,1.00
2022-07-29T06:58:58.518Z,1.00
2022-07-29T07:01:26.597Z,1.30
2022-07-29T07:03:54.630Z,1.13
2022-07-29T07:06:22.655Z,1.47
2022-07-29T07:08:52.166Z,1.30
2022-07-29T07:11:20.269Z,1.30
2022-07-29T07:13:48.305Z,1.50
2022-07-29T07:16:16.872Z,1.23
2022-07-29T07:18:46.207Z,1.10
2022-07-29T07:21:19.064Z,1.40
2022-07-29T07:23:47.588Z,1.43
2022-07-29T07:26:17.763Z,1.20
2022-07-29T07:28:45.804Z,1.03
2022-07-29T07:31:13.949Z,1.37
2022-07-29T07:33:41.950Z,1.50
2022-07-29T07:36:10.026Z,1.30
2022-07-29T07:38:38.078Z,1.20
2022-07-29T07:41:06.107Z,1.40
2022-07-29T07:43:35.501Z,1.27
2022-07-29T07:46:03.632Z,1.40
2022-07-29T07:48:31.778Z,1.50
2022-07-29T07:50:59.785Z,1.50
2022-07-29T07:53:28.102Z,1.20
2022-07-29T07:56:12.702Z,1.47
2022-07-29T07:58:42.469Z,1.40
2022-07-29T08:01:10.891Z,1.40
2022-07-29T08:03:39.850Z,1.03
2022-07-29T08:06:08.022Z,1.10
2022-07-29T08:08:36.249Z,1.43
2022-07-29T08:11:09.119Z,1.33
2022-07-29T08:13:38.683Z,1.20
2022-07-29T08:16:16.198Z,1.38
2022-07-29T08:18:47.112Z,1.60
2022-07-29T08:21:16.342Z,1.20
2022-07-29T08:23:59.792Z,1.48
2022-07-29T08:26:29.917Z,1.42
2022-07-29T08:28:57.847Z,1.30
2022-07-29T08:31:27.316Z,1.30
2022-07-29T08:33:57.108Z,1.38
2022-07-29T08:36:25.868Z,1.50
2022-07-29T08:38:53.918Z,1.17
2022-07-29T08:41:22.317Z,1.25
2022-07-29T08:43:51.101Z,1.30
2022-07-29T08:46:19.464Z,1.25
2022-07-29T08:48:49.683Z,1.30
2022-07-29T08:51:20.067Z,1.30
2022-07-29T08:53:50.330Z,1.40
2022-07-29T08:56:19.425Z,1.20
2022-07-29T08:58:52.019Z,1.23
2022-07-29T09:01:35.193Z,1.60
2022-07-29T09:04:10.460Z,1.40
2022-07-29T09:06:44.015Z,1.30
2022-07-29T09:09:12.267Z,1.38
2022-07-29T09:11:40.436Z,1.40
2022-07-29T09:14:08.577Z,1.23
2022-07-29T09:16:53.218Z,1.60
2022-07-29T09:19:28.415Z,1.38
2022-07-29T09:21:59.011Z,1.27
2022-07-29T09:24:28.780Z,1.67
2022-07-29T09:26:56.963Z,1.40
2022-07-29T09:29:26.038Z,1.60
2022-07-29T09:31:56.027Z,1.45
2022-07-29T09:34:26.954Z,1.10
2022-07-29T09:36:57.023Z,1.40
2022-07-29T09:39:32.468Z,1.27
2022-07-29T09:42:02.606Z,1.13
2022-07-29T09:44:43.922Z,1.30
2022-07-29T09:47:12.005Z,1.40
2022-07-29T09:49:55.572Z,1.13
2022-07-29T09:52:23.685Z,1.30
2022-07-29T09:54:51.766Z,1.50
2022-07-29T09:57:30.953Z,1.20
2022-07-29T10:00:01.972Z,1.35
2022-07-29T10:02:31.993Z,1.27
2022-07-29T10:05:02.722Z,1.08
2022-07-29T10:07:50.504Z,1.35
2022-07-29T10:10:23.267Z,1.30
2022-07-29T10:12:53.135Z,1.35
2022-07-29T10:15:22.892Z,1.13
2022-07-29T10:17:51.577Z,1.58
2022-07-29T10:20:21.540Z,1.27
2022-07-29T10:22:53.437Z,1.40
2022-07-29T10:25:22.734Z,1.20
2022-07-29T10:27:52.195Z,1.17
2022-07-29T10:30:21.119Z,1.05
2022-07-29T10:33:10.962Z,1.23
2022-07-29T10:36:06.353Z,1.40
2022-07-29T10:38:49.373Z,1.52
2022-07-29T10:42:07.997Z,0.98
2022-07-29T10:44:41.465Z,1.30
2022-07-29T10:47:09.972Z,1.20
2022-07-29T10:49:41.090Z,1.10
2022-07-29T10:52:11.702Z,1.15
2022-07-29T10:54:43.950Z,1.20
2022-07-29T10:57:21.465Z,1.13
2022-07-29T11:00:34.169Z,1.30
2022-07-29T11:03:04.510Z,1.13
2022-07-29T11:05:56.877Z,1.70
2022-07-29T11:08:31.809Z,1.25
2022-07-29T11:11:38.035Z,1.17
2022-07-29T11:14:07.609Z,1.25
2022-07-29T11:17:06.330Z,1.42
2022-07-29T11:19:35.842Z,1.13
2022-07-29T11:22:04.728Z,1.27
2022-07-29T11:24:35.953Z,1.08
2022-07-29T11:27:17.944Z,1.30
2022-07-29T11:29:56.477Z,1.23
2022-07-29T11:35:19.001Z,0.85
2022-07-29T11:37:52.557Z,1.10
2022-07-29T11:40:25.208Z,1.00
2022-07-29T11:42:53.525Z,1.10
2022-07-29T11:45:44.939Z,1.30
2022-07-29T11:48:31.440Z,1.17
2022-07-29T11:51:01.545Z,1.20
2022-07-29T11:56:25.647Z,1.58
2022-07-29T11:59:05.772Z,1.30
2022-07-29T12:01:36.923Z,1.17
2022-07-29T12:04:06.834Z,1.30
2022-07-29T12:06:35.220Z,1.02
2022-07-29T12:07:03.198Z,1.00
2022-07-29T12:07:03.607Z,1.15
2022-07-29T12:09:14.482Z,1.30
2022-07-29T12:11:45.050Z,1.23
2022-07-29T12:14:27.970Z,0.88
2022-07-29T12:16:56.390Z,1.27
2022-07-29T12:19:24.670Z,1.13
2022-07-29T12:21:56.770Z,0.93
2022-07-29T12:24:26.752Z,1.05
2022-07-29T12:26:58.834Z,1.00
2022-07-29T12:29:35.516Z,1.00
2022-07-29T12:32:14.486Z,1.30
2022-07-29T12:34:43.209Z,1.17
2022-07-29T12:37:11.990Z,1.02
2022-07-29T12:39:40.356Z,0.80
2022-07-29T12:42:18.288Z,1.20
2022-07-29T12:44:48.393Z,1.42
2022-07-29T12:47:16.928Z,1.05
2022-07-29T12:49:45.020Z,0.88
2022-07-29T12:52:30.093Z,1.00
2022-07-29T12:54:58.369Z,0.88
2022-07-29T12:57:27.928Z,1.27
2022-07-29T13:00:17.001Z,1.40
2022-07-29T13:02:46.271Z,1.17
2022-07-29T13:05:14.652Z,1.10
2022-07-29T13:07:55.867Z,1.25
2022-07-29T13:10:25.929Z,1.20
2022-07-29T13:13:06.659Z,0.98
2022-07-29T13:15:35.428Z,1.10
2022-07-29T13:18:03.818Z,1.10
2022-07-29T13:20:32.279Z,1.20
2022-07-29T13:23:01.983Z,1.20
2022-07-29T13:25:32.568Z,0.98
2022-07-29T13:28:01.737Z,1.00
2022-07-29T13:30:31.151Z,1.27
2022-07-29T13:32:59.163Z,0.93
2022-07-29T13:35:30.613Z,0.90
2022-07-29T13:37:58.655Z,1.05
2022-07-29T13:40:26.946Z,1.38
2022-07-29T13:42:55.006Z,1.00
2022-07-29T13:45:23.229Z,1.17
2022-07-29T13:47:52.621Z,1.08
2022-07-29T13:50:20.693Z,0.63
2022-07-29T13:52:49.530Z,0.70
2022-07-29T13:55:17.570Z,0.98
2022-07-29T13:57:45.583Z,1.10
2022-07-29T14:00:14.500Z,1.27
2022-07-29T14:02:42.461Z,0.80
2022-07-29T14:05:11.961Z,0.90
2022-07-29T14:07:40.735Z,1.10
2022-07-29T14:10:09.436Z,1.08
2022-07-29T14:12:37.486Z,1.13
2022-07-29T14:15:06.212Z,1.02
2022-07-29T14:17:34.240Z,1.00
2022-07-29T14:20:02.461Z,0.88
2022-07-29T14:22:31.884Z,1.20
2022-07-29T14:25:11.289Z,1.00
2022-07-29T14:27:43.392Z,0.77
2022-07-29T14:30:12.380Z,0.80
2022-07-29T14:32:40.413Z,0.68
2022-07-29T14:35:09.901Z,0.70
2022-07-29T14:37:40.206Z,0.90
2022-07-29T14:40:10.189Z,0.60
2022-07-29T14:42:38.603Z,0.98
2022-07-29T14:45:07.985Z,0.90
2022-07-29T14:47:36.106Z,0.90
2022-07-29T14:50:05.956Z,0.70
2022-07-29T14:52:34.173Z,0.73
2022-07-29T14:55:03.772Z,0.90
2022-07-29T14:57:31.953Z,0.82
2022-07-29T15:00:00.076Z,1.00
2022-07-29T15:02:40.233Z,0.80
2022-07-29T15:05:14.155Z,1.10
2022-07-29T15:07:42.384Z,1.10
2022-07-29T15:10:11.780Z,0.98
2022-07-29T15:12:43.697Z,0.93
2022-07-29T15:15:11.976Z,0.77
2022-07-29T15:17:40.009Z,0.63
2022-07-29T15:20:08.986Z,1.20
2022-07-29T15:22:38.073Z,0.88
2022-07-29T15:25:07.013Z,0.80
2022-07-29T15:27:36.382Z,0.73
2022-07-29T15:30:05.126Z,0.90
2022-07-29T15:32:33.337Z,0.90
2022-07-29T15:35:01.384Z,0.93
2022-07-29T15:37:29.414Z,0.88
2022-07-29T15:40:17.593Z,1.20
2022-07-29T15:42:46.990Z,0.98
2022-07-29T15:45:15.001Z,1.00
2022-07-29T15:47:43.448Z,1.05
2022-07-29T15:50:16.003Z,0.88
2022-07-29T15:52:44.108Z,1.00
2022-07-29T15:55:12.736Z,0.77
2022-07-29T15:57:41.272Z,0.90
2022-07-29T16:00:12.241Z,1.15
2022-07-29T16:02:40.349Z,0.95
2022-07-29T16:05:09.476Z,0.90
2022-07-29T16:07:37.919Z,0.95
2022-07-29T16:10:07.892Z,1.00
2022-07-29T16:12:35.905Z,0.90
2022-07-29T16:15:09.426Z,1.00
2022-07-29T16:17:39.993Z,0.93
2022-07-29T16:20:09.225Z,0.90
2022-07-29T16:22:38.693Z,1.00
2022-07-29T16:25:07.687Z,0.95
2022-07-29T16:27:38.098Z,0.93
2022-07-29T16:30:08.010Z,0.80
2022-07-29T16:32:36.127Z,0.90
2022-07-29T16:35:06.076Z,1.10
2022-07-29T16:37:36.530Z,0.82
2022-07-29T16:40:06.185Z,0.98
2022-07-29T16:42:46.619Z,1.00
2022-07-29T16:45:15.607Z,1.33
2022-07-29T16:47:43.863Z,1.02
2022-07-29T16:50:13.355Z,1.20
2022-07-29T16:52:41.407Z,1.23
2022-07-29T16:55:09.847Z,1.23
2022-07-29T16:57:37.864Z,1.02
2022-07-29T17:00:07.261Z,1.20
2022-07-29T17:02:35.317Z,1.30
2022-07-29T17:05:03.323Z,1.05
2022-07-29T17:07:32.727Z,1.10
2022-07-29T17:10:03.962Z,1.05
2022-07-29T17:12:32.554Z,1.20
2022-07-29T17:15:00.620Z,1.33
2022-07-29T17:17:38.611Z,1.25
2022-07-29T17:20:09.288Z,1.30
2022-07-29T17:22:40.290Z,1.10
2022-07-29T17:25:09.336Z,1.23
2022-07-29T17:27:37.931Z,1.45
2022-07-29T17:30:07.019Z,1.08
2022-07-29T17:32:38.531Z,1.20
2022-07-29T17:35:28.648Z,0.95
2022-07-29T17:37:58.069Z,1.10
2022-07-29T17:40:26.048Z,1.00
2022-07-29T17:42:54.079Z,1.00
2022-07-29T17:45:22.054Z,1.30
2022-07-29T17:47:50.014Z,1.00
2022-07-29T17:50:18.081Z,1.02
2022-07-29T17:52:46.095Z,1.00
2022-07-29T17:55:15.352Z,0.90
2022-07-29T17:57:43.383Z,1.55
2022-07-29T18:00:11.931Z,1.27
2022-07-29T18:02:39.940Z,0.73
2022-07-29T18:05:08.578Z,1.10
2022-07-29T18:07:36.602Z,0.95
2022-07-29T18:10:05.227Z,0.90
2022-07-29T18:12:34.631Z,1.17
2022-07-29T18:15:02.674Z,0.90
2022-07-29T18:17:50.496Z,0.80
2022-07-29T18:20:18.588Z,1.10
2022-07-29T18:22:46.634Z,1.10
2022-07-29T18:25:14.731Z,0.75
2022-07-29T18:27:45.154Z,1.20
2022-07-29T18:30:15.047Z,1.10
2022-07-29T18:32:59.115Z,1.02
2022-07-29T18:35:31.782Z,0.93
2022-07-29T18:38:00.665Z,1.10
2022-07-29T18:40:30.905Z,0.93
2022-07-29T18:43:00.242Z,1.02
2022-07-29T18:45:29.051Z,1.08
2022-07-29T18:47:57.242Z,1.17
2022-07-29T18:50:29.174Z,0.95
2022-07-29T18:52:58.804Z,0.90
2022-07-29T18:55:27.166Z,1.00
2022-07-29T18:57:57.236Z,1.55
2022-07-29T19:00:27.520Z,0.90
2022-07-29T19:02:55.594Z,1.00
2022-07-29T19:05:24.241Z,1.20
2022-07-29T19:07:54.730Z,1.05
2022-07-29T19:10:22.943Z,1.10
2022-07-29T19:12:51.028Z,1.55
2022-07-29T19:15:20.017Z,1.20
2022-07-29T19:17:50.005Z,1.45
2022-07-29T19:20:18.138Z,1.20
2022-07-29T19:22:46.653Z,1.17
2022-07-29T19:25:15.206Z,1.08
2022-07-29T19:27:43.303Z,1.10
2022-07-29T19:30:12.029Z,1.23
2022-07-29T19:32:40.142Z,1.40
2022-07-29T19:35:25.199Z,1.33
2022-07-29T19:37:53.631Z,1.35
2022-07-29T19:40:22.355Z,1.38
2022-07-29T19:42:51.757Z,1.40
2022-07-29T19:45:20.424Z,1.15
2022-07-29T19:47:48.592Z,1.40
2022-07-29T19:50:18.307Z,1.60
2022-07-29T19:52:47.447Z,1.58
2022-07-29T19:55:16.105Z,1.52
2022-07-29T19:57:47.175Z,1.55
2022-07-29T20:00:17.172Z,1.63
2022-07-29T20:02:49.098Z,1.52
2022-07-29T20:05:18.625Z,1.40
2022-07-29T20:07:47.860Z,1.50
2022-07-29T20:10:16.332Z,1.38
2022-07-29T20:12:44.372Z,1.25
2022-07-29T20:15:16.534Z,1.38
2022-07-29T20:17:44.726Z,1.52
2022-07-29T20:20:13.231Z,1.25
2022-07-29T20:22:42.877Z,1.50
2022-07-29T20:25:11.912Z,1.85
2022-07-29T20:27:40.616Z,1.55
2022-07-29T20:30:13.255Z,1.45
2022-07-29T20:32:41.559Z,1.55
2022-07-29T20:35:12.032Z,1.30
2022-07-29T20:37:52.408Z,1.60
2022-07-29T20:40:26.647Z,1.30
2022-07-29T20:42:55.303Z,1.60
2022-07-29T20:45:23.876Z,1.30
2022-07-29T20:47:52.712Z,1.45
2022-07-29T20:50:24.049Z,1.20
2022-07-29T20:52:52.850Z,1.67
2022-07-29T20:55:21.059Z,1.40
2022-07-29T20:57:50.635Z,1.35
2022-07-29T21:00:18.964Z,1.40
2022-07-29T21:02:47.338Z,1.30
2022-07-29T21:05:15.521Z,1.35
2022-07-29T21:07:43.503Z,1.60
2022-07-29T21:10:11.649Z,1.30
2022-07-29T21:12:39.711Z,1.58
2022-07-29T21:15:13.368Z,1.55
2022-07-29T21:17:46.691Z,1.42
2022-07-29T21:20:15.415Z,1.70
2022-07-29T21:22:43.615Z,1.20
2022-07-29T21:25:12.564Z,1.10
2022-07-29T21:27:57.995Z,1.20
2022-07-29T21:30:27.434Z,1.60
2022-07-29T21:32:55.539Z,1.37
2022-07-29T21:35:58.960Z,1.38
2022-07-29T21:38:11.656Z,1.48
2022-07-29T21:40:39.927Z,1.40
2022-07-29T21:43:07.914Z,1.30
2022-07-29T21:45:39.350Z,1.37
2022-07-29T21:48:08.203Z,1.50
2022-07-29T21:50:36.498Z,1.55
2022-07-29T21:53:04.510Z,1.70
2022-07-29T21:55:34.097Z,1.50
2022-07-29T21:58:02.183Z,1.50
2022-07-29T22:00:31.162Z,1.50
2022-07-29T22:03:01.211Z,1.70
2022-07-29T22:05:29.494Z,1.57
2022-07-29T22:07:58.359Z,1.53
2022-07-29T22:10:26.978Z,1.70
2022-07-29T22:12:56.756Z,1.80
2022-07-29T22:15:25.354Z,1.60
2022-07-29T22:17:53.808Z,1.70
2022-07-29T22:20:23.350Z,1.70
2022-07-29T22:22:51.343Z,1.60
2022-07-29T22:25:19.448Z,1.40
2022-07-29T22:27:47.845Z,1.60
2022-07-29T22:30:16.214Z,1.37
2022-07-29T22:32:44.571Z,1.90
2022-07-29T22:35:12.643Z,1.80
2022-07-29T22:37:42.073Z,1.73
2022-07-29T22:40:11.170Z,1.50
2022-07-29T22:42:40.889Z,1.67
2022-07-29T22:45:10.547Z,1.63
2022-07-29T22:47:48.051Z,1.50
2022-07-29T22:50:17.134Z,1.50
2022-07-29T22:52:46.968Z,1.57
2022-07-29T22:55:15.607Z,1.50
2022-07-29T22:57:43.964Z,1.70
2022-07-29T23:00:12.932Z,1.30
2022-07-29T23:02:41.563Z,1.70
2022-07-29T23:05:11.318Z,1.40
2022-07-29T23:07:39.509Z,1.80
2022-07-29T23:10:10.173Z,1.80
2022-07-29T23:12:38.373Z,1.57
2022-07-29T23:15:07.019Z,1.47
2022-07-29T23:17:36.560Z,1.67
2022-07-29T23:20:07.536Z,1.50
2022-07-29T23:22:35.632Z,1.60
2022-07-29T23:25:03.876Z,1.63
2022-07-29T23:27:33.440Z,1.70
2022-07-29T23:30:01.434Z,1.67
2022-07-29T23:32:29.433Z,1.70
2022-07-29T23:34:57.528Z,1.80
2022-07-29T23:37:26.856Z,1.60
2022-07-29T23:39:55.992Z,1.80
2022-07-29T23:42:24.069Z,1.87
2022-07-29T23:44:53.540Z,1.53
2022-07-29T23:47:21.588Z,1.47
2022-07-29T23:49:50.117Z,1.40
2022-07-29T23:52:18.501Z,1.83
2022-07-29T23:54:46.612Z,1.60
2022-07-29T23:57:14.688Z,1.73
2022-07-29T23:59:42.701Z,1.60
